Terminal Aerodrome Forecast
Issued by NWS

Home | Current Version | Previous Version | Graphics & Text | Print | Product List | Glossary On
Versions: 1 2 3 4 5 6 7 8 9 10 11 12 13 14 15 16 17 18 19
000
FTUS43 KMPX 271120
TAFAXN
TAF
KAXN 271120Z 2712/2812 10007KT P6SM SCT100 OVC250
     FM271600 10009KT P6SM VCSH SCT025 OVC050
      TEMPO 2716/2720 4SM -SHRA BR OVC025
     FM272000 07007KT P6SM -SHRA BKN025 OVC050
     FM280500 01004KT 4SM BR SCT007 OVC015=

USA.gov is the U.S. government's official web portal to all federal, state and local government web resources and services.